createdAt,value
2018-06-27T00:01:53.228Z,17.10
2018-06-27T00:04:57.647Z,17.20
2018-06-27T00:08:01.923Z,17.20
2018-06-27T00:11:06.170Z,17.20
2018-06-27T00:14:10.462Z,17.30
2018-06-27T00:17:14.778Z,17.20
2018-06-27T00:20:19.094Z,17.20
2018-06-27T00:23:23.556Z,17.20
2018-06-27T00:26:27.926Z,17.10
2018-06-27T00:29:32.901Z,17.10
2018-06-27T00:32:37.358Z,17.10
2018-06-27T00:35:41.623Z,17.10
2018-06-27T00:38:46.235Z,17.10
2018-06-27T00:41:50.706Z,17.00
2018-06-27T00:44:55.043Z,17.10
2018-06-27T00:47:59.249Z,17.10
2018-06-27T00:51:03.544Z,17.10
2018-06-27T00:54:08.925Z,17.10
2018-06-27T00:57:13.165Z,17.20
2018-06-27T01:00:17.243Z,17.00
2018-06-27T01:03:21.459Z,17.00
2018-06-27T01:06:25.694Z,17.00
2018-06-27T01:09:30.053Z,16.90
2018-06-27T01:12:34.426Z,16.90
2018-06-27T01:15:38.848Z,16.90
2018-06-27T01:18:43.208Z,16.80
2018-06-27T01:21:48.637Z,16.80
2018-06-27T01:24:53.092Z,16.80
2018-06-27T01:27:57.404Z,16.70
2018-06-27T01:31:01.731Z,16.70
2018-06-27T01:34:06.023Z,16.70
2018-06-27T01:37:10.205Z,16.70
2018-06-27T01:40:14.189Z,16.70
2018-06-27T01:43:18.080Z,16.70
2018-06-27T01:46:22.001Z,16.60
2018-06-27T01:49:25.960Z,16.60
2018-06-27T01:52:30.200Z,16.50
2018-06-27T01:55:34.552Z,16.40
2018-06-27T01:58:39.062Z,16.40
2018-06-27T02:01:43.454Z,16.40
2018-06-27T02:04:47.857Z,16.30
2018-06-27T02:07:52.065Z,16.30
2018-06-27T02:10:56.434Z,16.40
2018-06-27T02:14:00.590Z,16.40
2018-06-27T02:17:05.438Z,16.30
2018-06-27T02:20:09.711Z,16.30
2018-06-27T02:23:14.044Z,16.30
2018-06-27T02:26:18.375Z,16.20
2018-06-27T02:29:22.755Z,16.20
2018-06-27T02:32:27.208Z,16.10
2018-06-27T02:35:31.693Z,16.00
2018-06-27T02:38:35.772Z,16.00
2018-06-27T02:41:41.533Z,16.00
2018-06-27T02:44:46.727Z,16.10
2018-06-27T02:47:51.150Z,16.20
2018-06-27T02:50:55.534Z,16.30
2018-06-27T02:53:59.852Z,16.30
2018-06-27T02:57:04.034Z,16.40
2018-06-27T03:00:08.647Z,16.50
2018-06-27T03:03:12.766Z,16.40
2018-06-27T03:06:17.040Z,16.40
2018-06-27T03:09:21.344Z,16.50
2018-06-27T03:12:25.791Z,16.50
2018-06-27T03:15:29.954Z,16.50
2018-06-27T03:18:34.269Z,16.40
2018-06-27T03:21:38.648Z,16.40
2018-06-27T03:24:43.246Z,16.40
2018-06-27T03:27:47.429Z,16.30
2018-06-27T03:30:51.625Z,16.30
2018-06-27T03:33:55.948Z,16.30
2018-06-27T03:37:00.374Z,16.30
2018-06-27T03:40:05.060Z,16.20
2018-06-27T03:43:09.300Z,16.20
2018-06-27T03:46:13.605Z,16.30
2018-06-27T03:49:17.951Z,16.40
2018-06-27T03:52:22.394Z,16.40
2018-06-27T03:55:26.590Z,16.50
2018-06-27T03:58:31.206Z,16.50
2018-06-27T04:01:35.589Z,16.50
2018-06-27T04:04:39.950Z,16.50
2018-06-27T04:07:44.418Z,16.50
2018-06-27T04:10:48.655Z,16.60
2018-06-27T04:13:53.020Z,16.60
2018-06-27T04:16:57.264Z,16.60
2018-06-27T04:20:01.616Z,16.60
2018-06-27T04:23:05.875Z,16.80
2018-06-27T04:26:10.222Z,16.90
2018-06-27T04:29:14.638Z,17.10
2018-06-27T04:32:19.015Z,17.20
2018-06-27T04:35:23.514Z,17.30
2018-06-27T04:38:27.829Z,17.50
2018-06-27T04:41:32.191Z,17.60
2018-06-27T04:44:36.480Z,17.70
2018-06-27T04:47:40.809Z,17.80
2018-06-27T04:50:45.098Z,18.00
2018-06-27T04:53:49.342Z,18.20
2018-06-27T04:56:53.629Z,18.40
2018-06-27T04:59:57.984Z,18.50
2018-06-27T05:03:02.305Z,18.60
2018-06-27T05:06:06.801Z,18.80
2018-06-27T05:09:11.408Z,19.00
2018-06-27T05:12:15.802Z,19.20
2018-06-27T05:15:20.122Z,19.30
2018-06-27T05:18:24.512Z,19.50
2018-06-27T05:21:28.738Z,19.50
2018-06-27T05:24:32.995Z,19.60
2018-06-27T05:27:37.378Z,19.60
2018-06-27T05:30:41.746Z,19.60
2018-06-27T05:33:45.957Z,19.70
2018-06-27T05:36:50.233Z,19.60
2018-06-27T05:39:54.632Z,19.70
2018-06-27T05:42:59.082Z,19.90
2018-06-27T05:46:03.562Z,20.00
2018-06-27T05:49:07.877Z,20.10
2018-06-27T05:52:12.095Z,20.30
2018-06-27T05:55:16.586Z,20.50
2018-06-27T05:58:20.849Z,20.50
2018-06-27T06:01:25.021Z,20.50
2018-06-27T06:04:29.580Z,20.50
2018-06-27T06:07:34.620Z,20.60
2018-06-27T06:10:38.933Z,20.70
2018-06-27T06:13:43.352Z,20.90
2018-06-27T06:16:47.675Z,21.40
2018-06-27T06:19:52.137Z,22.00
2018-06-27T06:22:56.354Z,22.50
2018-06-27T06:26:00.873Z,23.00
2018-06-27T06:29:05.214Z,23.80
2018-06-27T06:32:09.696Z,24.50
2018-06-27T06:35:14.028Z,24.50
2018-06-27T06:38:18.284Z,24.50
2018-06-27T06:41:22.483Z,24.80
2018-06-27T06:44:26.890Z,25.70
2018-06-27T06:47:31.216Z,26.40
2018-06-27T06:50:35.579Z,26.20
2018-06-27T06:53:39.850Z,25.80
2018-06-27T06:56:44.094Z,26.70
2018-06-27T06:59:48.422Z,27.90
2018-06-27T07:02:52.743Z,29.40
2018-06-27T07:05:57.155Z,29.60
2018-06-27T07:09:01.432Z,28.90
2018-06-27T07:12:05.798Z,28.20
2018-06-27T07:15:10.138Z,27.60
2018-06-27T07:18:14.485Z,28.70
2018-06-27T07:21:18.872Z,30.80
2018-06-27T07:24:23.109Z,32.80
2018-06-27T07:27:27.359Z,34.00
2018-06-27T07:30:31.630Z,32.80
2018-06-27T07:33:35.967Z,31.60
2018-06-27T07:36:40.250Z,31.30
2018-06-27T07:39:44.746Z,31.00
2018-06-27T07:42:49.239Z,31.10
2018-06-27T07:45:54.033Z,30.30
2018-06-27T07:48:58.360Z,29.50
2018-06-27T07:52:03.344Z,29.00
2018-06-27T07:55:07.797Z,28.80
2018-06-27T07:58:12.228Z,28.60
2018-06-27T08:01:16.462Z,28.30
2018-06-27T08:04:20.748Z,27.70
2018-06-27T08:07:25.151Z,27.30
2018-06-27T08:10:29.459Z,26.80
2018-06-27T08:13:33.773Z,26.50
2018-06-27T08:16:38.116Z,26.40
2018-06-27T08:19:42.430Z,26.10
2018-06-27T08:22:47.489Z,26.00
2018-06-27T08:25:52.800Z,25.90
2018-06-27T08:32:01.059Z,25.70
2018-06-27T08:35:05.360Z,25.60
2018-06-27T08:38:10.718Z,25.50
2018-06-27T08:41:15.091Z,25.60
2018-06-27T08:44:19.653Z,25.80
2018-06-27T08:47:24.067Z,25.90
2018-06-27T08:50:28.289Z,26.00
2018-06-27T08:53:32.550Z,25.90
2018-06-27T08:56:36.982Z,25.80
2018-06-27T08:59:41.284Z,25.60
2018-06-27T09:02:45.714Z,25.50
2018-06-27T09:05:50.060Z,25.50
2018-06-27T09:08:54.393Z,25.50
2018-06-27T09:11:58.663Z,25.40
2018-06-27T09:15:02.851Z,25.60
2018-06-27T09:18:07.224Z,25.70
2018-06-27T09:21:11.679Z,25.90
2018-06-27T09:24:16.151Z,26.00
2018-06-27T09:27:20.341Z,25.90
2018-06-27T09:30:24.589Z,25.90
2018-06-27T09:33:28.720Z,26.30
2018-06-27T09:36:33.595Z,26.60
2018-06-27T09:39:37.871Z,26.60
2018-06-27T09:42:42.172Z,26.70
2018-06-27T09:45:46.626Z,26.70
2018-06-27T09:48:51.246Z,26.80
2018-06-27T09:51:55.735Z,26.70
2018-06-27T09:55:00.185Z,26.60
2018-06-27T09:58:04.398Z,26.40
2018-06-27T10:01:08.768Z,26.50
2018-06-27T10:04:13.059Z,26.70
2018-06-27T10:07:17.462Z,26.60
2018-06-27T10:10:22.157Z,26.70
2018-06-27T10:13:26.381Z,26.70
2018-06-27T10:16:30.682Z,26.80
2018-06-27T10:19:35.054Z,27.00
2018-06-27T10:22:39.593Z,27.10
2018-06-27T10:25:44.035Z,27.10
2018-06-27T10:28:48.449Z,26.90
2018-06-27T10:31:52.918Z,26.80
2018-06-27T10:34:57.154Z,26.70
2018-06-27T10:38:01.531Z,26.60
2018-06-27T10:41:05.736Z,26.40
2018-06-27T10:44:09.989Z,26.30
2018-06-27T10:47:14.189Z,26.10
2018-06-27T10:50:18.599Z,25.90
2018-06-27T10:53:22.988Z,25.90
2018-06-27T10:56:27.185Z,25.90
2018-06-27T10:59:31.835Z,25.90
2018-06-27T11:02:36.301Z,26.10
2018-06-27T11:05:40.490Z,26.20
2018-06-27T11:08:44.922Z,26.30
2018-06-27T11:11:49.306Z,25.90
2018-06-27T11:14:53.605Z,25.70
2018-06-27T11:17:57.961Z,25.70
2018-06-27T11:21:02.456Z,25.90
2018-06-27T11:24:06.745Z,26.20
2018-06-27T11:27:11.068Z,26.50
2018-06-27T11:30:15.329Z,26.60
2018-06-27T11:33:19.639Z,26.60
2018-06-27T11:36:24.075Z,26.50
2018-06-27T11:39:28.383Z,26.30
2018-06-27T11:42:32.746Z,26.20
2018-06-27T11:45:37.255Z,26.20
2018-06-27T11:48:41.333Z,26.20
2018-06-27T11:51:45.562Z,26.00
2018-06-27T11:54:55.207Z,26.00
2018-06-27T11:57:59.711Z,25.90
2018-06-27T12:01:04.067Z,25.90
2018-06-27T12:04:08.404Z,25.60
2018-06-27T12:07:12.711Z,25.80
2018-06-27T12:10:17.022Z,25.90
2018-06-27T12:13:22.656Z,26.00
2018-06-27T12:16:26.882Z,26.00
2018-06-27T12:19:31.182Z,25.90
2018-06-27T12:22:35.462Z,25.80
2018-06-27T12:25:39.835Z,25.80
2018-06-27T12:28:44.318Z,25.80
2018-06-27T12:31:48.562Z,25.70
2018-06-27T12:34:52.876Z,25.60
2018-06-27T12:37:57.233Z,25.40
2018-06-27T12:41:01.706Z,25.50
2018-06-27T12:44:06.055Z,25.60
2018-06-27T12:47:10.472Z,25.90
2018-06-27T12:50:14.854Z,26.00
2018-06-27T12:53:19.016Z,26.10
2018-06-27T12:56:23.433Z,26.00
2018-06-27T12:59:27.683Z,25.80
2018-06-27T13:02:32.040Z,25.80
2018-06-27T13:05:36.912Z,26.00
2018-06-27T13:08:41.198Z,26.00
2018-06-27T13:11:46.406Z,25.90
2018-06-27T13:14:50.850Z,26.00
2018-06-27T13:17:55.260Z,26.10
2018-06-27T13:20:59.539Z,26.20
2018-06-27T13:24:03.930Z,26.00
2018-06-27T13:27:08.323Z,25.80
2018-06-27T13:30:12.599Z,25.50
2018-06-27T13:33:16.690Z,25.20
2018-06-27T13:36:20.958Z,24.90
2018-06-27T13:39:25.159Z,24.60
2018-06-27T13:42:29.408Z,24.50
2018-06-27T13:45:33.906Z,24.40
2018-06-27T13:48:38.400Z,24.20
2018-06-27T13:51:42.785Z,24.10
2018-06-27T13:54:52.212Z,24.10
2018-06-27T13:57:56.238Z,24.30
2018-06-27T14:01:00.539Z,24.60
2018-06-27T14:04:04.940Z,25.00
2018-06-27T14:07:09.212Z,25.20
2018-06-27T14:10:13.575Z,25.40
2018-06-27T14:13:18.078Z,25.50
2018-06-27T14:16:22.587Z,25.40
2018-06-27T14:19:26.812Z,25.40
2018-06-27T14:22:31.309Z,25.50
2018-06-27T14:25:35.769Z,25.40
2018-06-27T14:28:39.942Z,25.40
2018-06-27T14:31:44.308Z,25.30
2018-06-27T14:34:48.576Z,25.10
2018-06-27T14:37:52.987Z,24.90
2018-06-27T14:40:57.292Z,24.80
2018-06-27T14:44:01.757Z,24.70
2018-06-27T14:47:05.993Z,24.70
2018-06-27T14:50:10.390Z,24.70
2018-06-27T14:53:14.682Z,24.80
2018-06-27T14:56:18.868Z,24.90
2018-06-27T14:59:23.340Z,25.00
2018-06-27T15:02:27.628Z,25.20
2018-06-27T15:05:31.795Z,25.40
2018-06-27T15:08:36.510Z,25.50
2018-06-27T15:11:40.864Z,25.60
2018-06-27T15:14:45.289Z,25.50
2018-06-27T15:17:49.658Z,25.40
2018-06-27T15:20:53.962Z,25.20
2018-06-27T15:23:57.961Z,25.00
2018-06-27T15:27:02.318Z,24.60
2018-06-27T15:33:10.293Z,24.10
2018-06-27T15:36:15.110Z,23.80
2018-06-27T15:39:19.298Z,23.60
2018-06-27T15:42:23.612Z,23.50
2018-06-27T15:45:27.872Z,23.30
2018-06-27T15:51:36.630Z,23.00
2018-06-27T15:54:40.975Z,22.90
2018-06-27T15:57:45.499Z,22.80
2018-06-27T16:00:49.905Z,22.80
2018-06-27T16:03:54.461Z,23.00
2018-06-27T16:06:59.125Z,23.30
2018-06-27T16:10:03.510Z,23.50
2018-06-27T16:13:07.753Z,23.80
2018-06-27T16:16:12.054Z,24.00
2018-06-27T16:19:16.162Z,24.30
2018-06-27T16:22:20.526Z,24.40
2018-06-27T16:25:24.947Z,24.50
2018-06-27T16:28:29.169Z,24.50
2018-06-27T16:31:33.527Z,24.40
2018-06-27T16:34:39.999Z,24.30
2018-06-27T16:37:44.380Z,24.10
2018-06-27T16:40:48.670Z,23.80
2018-06-27T16:43:53.293Z,23.60
2018-06-27T16:46:57.545Z,23.40
2018-06-27T16:50:01.897Z,23.20
2018-06-27T16:53:06.298Z,23.10
2018-06-27T16:56:10.666Z,22.90
2018-06-27T16:59:14.985Z,22.80
2018-06-27T17:02:19.392Z,22.80
2018-06-27T17:08:27.343Z,22.80
2018-06-27T17:11:31.674Z,22.80
2018-06-27T17:14:35.994Z,22.80
2018-06-27T17:17:40.455Z,22.70
2018-06-27T17:20:45.047Z,22.70
2018-06-27T17:23:49.272Z,22.70
2018-06-27T17:26:54.542Z,22.70
2018-06-27T17:29:58.644Z,22.60
2018-06-27T17:33:03.153Z,22.60
2018-06-27T17:36:07.661Z,22.60
2018-06-27T17:39:13.131Z,22.50
2018-06-27T17:42:17.662Z,22.50
2018-06-27T17:45:22.044Z,22.50
2018-06-27T17:48:26.605Z,22.50
2018-06-27T17:51:31.005Z,22.50
2018-06-27T17:54:35.387Z,22.50
2018-06-27T17:57:39.794Z,22.40
2018-06-27T18:00:44.311Z,22.40
2018-06-27T18:03:48.755Z,22.30
2018-06-27T18:06:52.904Z,22.30
2018-06-27T18:09:57.124Z,22.30
2018-06-27T18:13:01.549Z,22.20
2018-06-27T18:16:06.279Z,22.20
2018-06-27T18:19:10.740Z,22.20
2018-06-27T18:22:15.169Z,22.10
2018-06-27T18:25:19.474Z,22.10
2018-06-27T18:28:23.708Z,22.00
2018-06-27T18:31:28.163Z,22.00
2018-06-27T18:34:32.123Z,21.90
2018-06-27T18:37:36.048Z,21.90
2018-06-27T18:40:40.528Z,21.80
2018-06-27T18:43:44.890Z,21.80
2018-06-27T18:46:49.064Z,21.70
2018-06-27T18:49:53.374Z,21.60
2018-06-27T18:52:57.909Z,21.50
2018-06-27T18:56:02.453Z,21.40
2018-06-27T18:59:06.918Z,21.40
2018-06-27T19:02:11.268Z,21.30
2018-06-27T19:05:15.763Z,21.40
2018-06-27T19:08:20.605Z,21.30
2018-06-27T19:11:24.931Z,21.30
2018-06-27T19:14:29.278Z,21.30
2018-06-27T19:17:33.590Z,21.20
2018-06-27T19:20:38.013Z,21.20
2018-06-27T19:23:43.155Z,21.10
2018-06-27T19:26:47.413Z,21.00
2018-06-27T19:29:51.674Z,20.90
2018-06-27T19:32:55.935Z,20.80
2018-06-27T19:36:00.295Z,20.80
2018-06-27T19:39:06.458Z,20.70
2018-06-27T19:42:10.804Z,20.70
2018-06-27T19:45:15.144Z,20.70
2018-06-27T19:48:19.505Z,20.60
2018-06-27T19:51:24.135Z,20.60
2018-06-27T19:54:28.536Z,20.50
2018-06-27T19:57:32.770Z,20.60
2018-06-27T20:00:37.276Z,20.50
2018-06-27T20:03:42.614Z,20.50
2018-06-27T20:06:47.277Z,20.50
2018-06-27T20:09:51.627Z,20.50
2018-06-27T20:12:56.086Z,20.50
2018-06-27T20:16:00.962Z,20.50
2018-06-27T20:19:05.430Z,20.40
2018-06-27T20:22:09.944Z,20.30
2018-06-27T20:25:14.242Z,20.20
2018-06-27T20:28:18.562Z,20.10
2018-06-27T20:31:23.008Z,20.10
2018-06-27T20:34:27.443Z,20.00
2018-06-27T20:37:32.131Z,19.90
2018-06-27T20:40:36.415Z,19.80
2018-06-27T20:43:40.706Z,19.80
2018-06-27T20:46:45.330Z,19.80
2018-06-27T20:49:49.657Z,19.80
2018-06-27T20:52:53.946Z,19.70
2018-06-27T20:55:58.228Z,19.60
2018-06-27T20:59:02.575Z,19.60
2018-06-27T21:02:06.942Z,19.50
2018-06-27T21:05:11.282Z,19.50
2018-06-27T21:08:15.489Z,19.50
2018-06-27T21:11:19.662Z,19.50
2018-06-27T21:14:23.839Z,19.50
2018-06-27T21:17:28.165Z,19.50
2018-06-27T21:20:32.473Z,19.50
2018-06-27T21:23:36.831Z,19.50
2018-06-27T21:26:41.090Z,19.50
2018-06-27T21:29:45.431Z,19.50
2018-06-27T21:32:49.911Z,19.50
2018-06-27T21:35:53.994Z,19.40
2018-06-27T21:38:58.108Z,19.40
2018-06-27T21:42:02.274Z,19.40
2018-06-27T21:45:06.549Z,19.40
2018-06-27T21:48:10.907Z,19.20
2018-06-27T21:51:15.226Z,19.10
2018-06-27T21:54:19.602Z,19.00
2018-06-27T21:57:24.031Z,19.00
2018-06-27T22:00:31.875Z,19.00
2018-06-27T22:03:36.037Z,18.90
2018-06-27T22:06:40.553Z,18.80
2018-06-27T22:09:45.031Z,18.80
2018-06-27T22:12:49.462Z,18.80
2018-06-27T22:15:53.750Z,18.80
2018-06-27T22:18:58.112Z,18.80
2018-06-27T22:22:02.527Z,18.70
2018-06-27T22:25:07.041Z,18.70
2018-06-27T22:28:11.620Z,18.70
2018-06-27T22:31:15.658Z,18.70
2018-06-27T22:34:19.861Z,18.70
2018-06-27T22:37:24.185Z,18.70
2018-06-27T22:40:28.547Z,18.60
2018-06-27T22:43:32.844Z,18.50
2018-06-27T22:46:37.584Z,18.40
2018-06-27T22:49:42.017Z,18.20
2018-06-27T22:52:46.360Z,18.10
2018-06-27T22:55:50.648Z,17.90
2018-06-27T22:58:54.879Z,17.80
2018-06-27T23:01:59.218Z,17.70
2018-06-27T23:05:03.667Z,17.60
2018-06-27T23:08:07.987Z,17.60
2018-06-27T23:11:12.328Z,17.60
2018-06-27T23:14:16.601Z,17.50
2018-06-27T23:17:21.108Z,17.40
2018-06-27T23:20:25.413Z,17.50
2018-06-27T23:23:29.663Z,17.40
2018-06-27T23:26:34.017Z,17.40
2018-06-27T23:29:38.299Z,17.40
2018-06-27T23:32:42.746Z,17.40
2018-06-27T23:35:47.086Z,17.30
2018-06-27T23:38:51.384Z,17.40
2018-06-27T23:41:55.727Z,17.50
2018-06-27T23:45:00.048Z,17.60
2018-06-27T23:48:04.377Z,17.60
2018-06-27T23:51:08.688Z,17.60
2018-06-27T23:54:13.060Z,17.60
2018-06-27T23:57:17.284Z,17.60
